Time;durP1;ratioP1;P1;durP2;ratioP2;P2;SDS_P1;SDS_P2;PMS_P1;PMS_P2;Temp;Humidity;BMP_temperature;BMP_pressure;BME280_temperature;BME280_humidity;BME280_pressure;Samples;Min_cycle;Max_cycle;Signal;HPM_P1;HPM_P2
2022/06/09 00:02:52;;;;;;;7.60;6.40;;;;;;;15.45;92.04;97846.69;220596;1271;24314;-71
2022/06/09 00:07:59;;;;;;;8.70;7.70;;;;;;;15.44;92.19;97840.94;220690;1271;25315;-71
2022/06/09 00:13:14;;;;;;;7.80;7.00;;;;;;;15.45;92.58;97842.83;220709;1272;286417;-72
2022/06/09 00:18:22;;;;;;;10.40;8.80;;;;;;;15.46;92.78;97840.01;220419;1271;23351;-72
2022/06/09 00:23:29;;;;;;;10.70;9.50;;;;;;;15.48;93.02;97844.92;220534;1271;23841;-72
2022/06/09 00:28:31;;;;;;;11.30;10.20;;;;;;;15.52;93.30;97848.49;221185;1271;25309;-72
2022/06/09 00:33:34;;;;;;;11.90;10.70;;;;;;;15.55;93.51;97848.36;220346;1274;25426;-72
2022/06/09 00:38:36;;;;;;;11.20;10.10;;;;;;;15.57;93.58;97861.13;220766;1274;22800;-71
2022/06/09 00:44:04;;;;;;;10.10;9.00;;;;;;;15.60;93.69;97884.02;220482;1271;23202;-72
2022/06/09 00:49:17;;;;;;;11.00;9.90;;;;;;;15.62;93.60;97920.58;220622;1271;22548;-71
2022/06/09 00:54:54;;;;;;;14.20;12.50;;;;;;;15.63;93.44;97929.08;220658;1272;22571;-71
2022/06/09 01:00:42;;;;;;;16.40;13.60;;;;;;;15.63;93.41;97912.42;220493;1271;22586;-70
2022/06/09 01:06:31;;;;;;;11.30;10.20;;;;;;;15.63;93.37;97879.27;220686;1271;22529;-71
2022/06/09 01:11:57;;;;;;;14.40;11.90;;;;;;;15.70;93.99;97852.45;220459;1271;22544;-71
2022/06/09 01:17:12;;;;;;;17.10;13.00;;;;;;;15.70;93.52;97813.11;220848;1271;25439;-72
2022/06/09 01:22:39;;;;;;;18.70;15.70;;;;;;;15.61;93.63;97778.63;220854;1271;25465;-71
2022/06/09 01:28:40;;;;;;;18.60;15.30;;;;;;;15.63;95.02;97757.77;221092;1271;22694;-71
2022/06/09 01:34:24;;;;;;;20.00;16.20;;;;;;;15.70;95.86;97742.00;220664;1272;22555;-70
2022/06/09 01:39:56;;;;;;;19.00;14.90;;;;;;;15.78;96.26;97733.04;221014;1274;22583;-71
2022/06/09 01:45:24;;;;;;;18.50;16.50;;;;;;;15.81;95.94;97737.75;221033;1271;25261;-71
2022/06/09 01:50:46;;;;;;;23.30;16.50;;;;;;;15.78;95.98;97737.34;220671;1273;22559;-71
2022/06/09 01:56:03;;;;;;;20.50;16.70;;;;;;;15.75;95.98;97740.57;220845;1273;22646;-71
2022/06/09 02:01:14;;;;;;;21.20;17.20;;;;;;;15.71;96.01;97746.96;221100;1271;22584;-71
2022/06/09 02:06:23;;;;;;;20.30;16.60;;;;;;;15.70;96.15;97754.87;220903;1272;22541;-71
2022/06/09 02:11:35;;;;;;;19.00;16.30;;;;;;;15.69;96.15;97760.00;220975;1271;22541;-74
2022/06/09 02:16:43;;;;;;;19.60;16.30;;;;;;;15.68;96.46;97766.34;220924;1271;24227;-71
2022/06/09 02:22:01;;;;;;;;;;;;;;;15.69;96.46;97777.05;221053;1271;22528;-72
2022/06/09 02:27:07;;;;;;;21.30;17.00;;;;;;;15.67;96.39;97782.88;220721;1271;22547;-70
2022/06/09 02:32:20;;;;;;;19.20;16.90;;;;;;;15.65;96.57;97790.23;220372;1271;22691;-71
2022/06/09 02:37:32;;;;;;;23.10;18.40;;;;;;;15.63;96.59;97800.60;220528;1271;22636;-71
2022/06/09 02:42:38;;;;;;;20.00;16.30;;;;;;;15.62;96.57;97810.97;220808;1271;24283;-71
2022/06/09 02:48:07;;;;;;;20.10;16.40;;;;;;;15.61;96.68;97818.41;220845;1273;24260;-72
2022/06/09 02:53:39;;;;;;;18.00;15.30;;;;;;;15.62;96.81;97816.60;220652;1273;25401;-71
2022/06/09 02:58:57;;;;;;;17.70;15.00;;;;;;;15.66;97.03;97817.40;220698;1273;22564;-71
2022/06/09 03:04:00;;;;;;;19.80;15.50;;;;;;;15.69;96.98;97826.44;220812;1271;25245;-72
2022/06/09 03:09:11;;;;;;;20.70;17.50;;;;;;;15.70;96.84;97826.70;220681;1271;25376;-72
2022/06/09 03:14:34;;;;;;;18.30;16.10;;;;;;;15.71;96.77;97825.62;220614;1271;22622;-72
2022/06/09 03:19:43;;;;;;;17.20;15.30;;;;;;;15.71;96.79;97826.50;220897;1272;22555;-73
2022/06/09 03:25:23;;;;;;;20.00;15.50;;;;;;;15.74;96.87;97830.88;220462;1271;22562;-71
2022/06/09 03:30:55;;;;;;;18.10;14.80;;;;;;;15.79;96.95;97832.11;220859;1271;26021;-71
2022/06/09 03:35:58;;;;;;;18.30;14.50;;;;;;;15.84;96.98;97834.11;221560;1271;24256;-72
2022/06/09 03:41:00;;;;;;;18.20;14.90;;;;;;;15.92;97.14;97828.05;220795;1271;22674;-71
2022/06/09 03:46:04;;;;;;;18.10;15.70;;;;;;;16.02;97.32;97823.20;220612;1271;22561;-70
2022/06/09 03:51:07;;;;;;;18.60;15.70;;;;;;;16.09;97.15;97821.00;221169;1271;22691;-71
2022/06/09 03:56:18;;;;;;;18.60;15.40;;;;;;;16.16;97.07;97823.56;220539;1273;22730;-71
2022/06/09 04:01:51;;;;;;;18.20;15.00;;;;;;;16.25;97.20;97821.46;220854;1271;23457;-71
2022/06/09 04:07:06;;;;;;;16.70;14.30;;;;;;;16.33;97.18;97822.90;220765;1271;22726;-71
2022/06/09 04:12:17;;;;;;;16.50;13.80;;;;;;;16.41;96.87;97824.87;220671;1271;25341;-71
2022/06/09 04:17:36;;;;;;;17.00;13.90;;;;;;;16.46;96.52;97823.58;220999;1271;25238;-71
2022/06/09 04:22:55;;;;;;;16.50;14.00;;;;;;;16.50;96.60;97826.14;220635;1271;25391;-71
2022/06/09 04:27:58;;;;;;;15.30;13.20;;;;;;;16.53;96.59;97834.18;220624;1271;25453;-71
2022/06/09 04:33:09;;;;;;;17.20;13.70;;;;;;;16.56;96.70;97837.88;220658;1271;22573;-72
2022/06/09 04:38:54;;;;;;;16.30;13.10;;;;;;;16.66;96.96;97842.19;220863;1271;22544;-71
2022/06/09 04:44:41;;;;;;;17.90;14.50;;;;;;;16.81;97.23;97842.77;220880;1271;22556;-71
2022/06/09 04:50:48;;;;;;;16.90;14.20;;;;;;;16.91;96.88;97841.76;220821;1271;22551;-72
2022/06/09 04:56:36;;;;;;;16.00;14.10;;;;;;;17.00;96.67;97839.64;220760;1271;22497;-71
2022/06/09 05:02:18;;;;;;;15.60;13.80;;;;;;;17.05;96.39;97842.94;220826;1271;23360;-70
2022/06/09 05:07:43;;;;;;;17.00;13.90;;;;;;;17.06;96.11;97846.96;220941;1271;22703;-72
2022/06/09 05:19:41;;;;;;;15.20;13.60;;;;;;;17.31;96.44;97852.59;220929;1271;22556;-72
2022/06/09 05:25:13;;;;;;;15.80;13.90;;;;;;;17.52;96.31;97852.48;221318;1271;25232;-70
2022/06/09 05:31:14;;;;;;;16.30;14.40;;;;;;;17.72;96.11;97858.34;220844;1273;24232;-71
2022/06/09 05:37:09;;;;;;;16.10;14.30;;;;;;;17.90;95.72;97862.65;221019;1273;22591;-72
2022/06/09 05:48:13;;;;;;;13.90;12.40;;;;;;;18.39;95.67;97878.84;221452;1270;25271;-73
2022/06/09 05:53:27;;;;;;;14.50;13.00;;;;;;;18.54;94.26;97887.69;221352;1271;23260;-73
2022/06/09 05:58:30;;;;;;;12.70;11.40;;;;;;;18.64;93.76;97884.73;221071;1273;23327;-72
2022/06/09 06:03:53;;;;;;;12.60;11.30;;;;;;;18.78;93.77;97892.63;221636;1271;24115;-72
2022/06/09 06:08:59;;;;;;;12.40;11.20;;;;;;;19.08;93.71;97892.47;221547;1271;23345;-73
2022/06/09 06:14:14;;;;;;;14.20;12.70;;;;;;;19.36;92.96;97892.07;221678;1270;25489;-72
2022/06/09 06:19:27;;;;;;;13.80;12.30;;;;;;;19.63;92.09;97892.40;221531;1271;24721;-72
2022/06/09 06:25:37;;;;;;;14.70;13.20;;;;;;;19.95;91.44;97892.48;221168;1271;22853;-72
2022/06/09 06:30:42;;;;;;;12.90;11.60;;;;;;;20.25;90.30;97895.27;221227;1271;25355;-73
2022/06/09 06:35:45;;;;;;;11.80;10.50;;;;;;;20.49;89.99;97897.49;221452;1271;24986;-72
2022/06/09 06:41:10;;;;;;;11.90;9.90;;;;;;;20.69;88.99;97896.59;221647;1271;24251;-72
2022/06/09 06:46:23;;;;;;;9.60;8.70;;;;;;;20.91;87.97;97900.95;221064;1271;22589;-71
2022/06/09 06:51:32;;;;;;;9.10;8.30;;;;;;;20.96;86.81;97901.14;221511;1271;22580;-72
2022/06/09 06:56:46;;;;;;;10.30;9.30;;;;;;;20.95;86.56;97906.73;221005;1271;22556;-73
2022/06/09 07:01:51;;;;;;;10.00;8.30;;;;;;;20.95;86.20;97903.38;221458;1271;26598;-72
2022/06/09 07:07:14;;;;;;;10.30;8.70;;;;;;;20.97;85.75;97905.66;220901;1271;22576;-72
2022/06/09 07:12:17;;;;;;;9.70;8.70;;;;;;;20.95;85.29;97907.67;221074;1271;24147;-71
2022/06/09 07:17:32;;;;;;;10.10;9.00;;;;;;;21.01;85.15;97910.45;221298;1271;22705;-71
2022/06/09 07:22:45;;;;;;;10.40;9.30;;;;;;;21.21;85.32;97904.56;221463;1271;22544;-70
2022/06/09 07:27:48;;;;;;;11.80;10.70;;;;;;;21.43;85.08;97901.58;221263;1271;25426;-71
2022/06/09 07:33:03;;;;;;;10.80;9.70;;;;;;;21.63;84.74;97906.59;221195;1271;25306;-72
2022/06/09 07:38:29;;;;;;;10.40;9.50;;;;;;;21.87;84.06;97909.16;221182;1273;24069;-72
2022/06/09 07:43:32;;;;;;;9.30;8.50;;;;;;;22.05;83.12;97912.25;220804;1273;22533;-71
2022/06/09 07:48:39;;;;;;;10.60;9.60;;;;;;;21.95;82.18;97902.09;221090;1271;22707;-72
2022/06/09 07:53:50;;;;;;;11.70;9.60;;;;;;;21.99;82.19;97905.37;221165;1271;25273;-72
2022/06/09 07:58:54;;;;;;;12.10;10.80;;;;;;;22.14;82.19;97910.16;220892;1272;26368;-72
2022/06/09 08:03:57;;;;;;;12.60;11.30;;;;;;;22.25;81.72;97909.09;221089;1271;25424;-71
2022/06/09 08:09:03;;;;;;;13.60;12.10;;;;;;;22.32;81.39;97903.88;221262;1271;22605;-72
2022/06/09 08:14:08;;;;;;;13.20;11.90;;;;;;;22.40;81.35;97905.94;221512;1271;26526;-72
2022/06/09 08:19:32;;;;;;;16.00;14.00;;;;;;;22.50;80.82;97917.88;221297;1272;23842;-72
2022/06/09 08:24:55;;;;;;;14.70;13.30;;;;;;;22.77;80.73;97926.69;220766;1273;23464;-72
2022/06/09 08:30:03;;;;;;;12.20;10.80;;;;;;;23.16;80.65;97930.41;221418;1271;22636;-73
2022/06/09 08:35:13;;;;;;;11.00;10.00;;;;;;;23.47;79.53;97930.42;221128;1271;22641;-72
2022/06/09 08:40:27;;;;;;;9.80;8.80;;;;;;;23.63;77.65;97920.61;220941;1271;22573;-72
2022/06/09 08:45:40;;;;;;;10.50;9.40;;;;;;;23.77;76.78;97924.15;221209;1271;22582;-73
2022/06/09 08:51:09;;;;;;;6.50;6.00;;;;;;;23.82;74.97;97925.77;221096;1271;25508;-73
2022/06/09 08:56:21;;;;;;;6.70;6.10;;;;;;;24.10;73.74;97925.88;220979;1271;22544;-72
2022/06/09 09:01:39;;;;;;;5.90;5.40;;;;;;;24.45;71.93;97925.52;221135;1271;22709;-74
2022/06/09 09:06:56;;;;;;;6.30;5.80;;;;;;;24.41;70.00;97926.94;221510;1271;22553;-72
2022/06/09 09:12:01;;;;;;;6.60;6.00;;;;;;;24.51;69.99;97927.19;221259;1272;25304;-72
2022/06/09 09:17:20;;;;;;;7.00;6.20;;;;;;;24.55;69.21;97932.77;221341;1271;22532;-72
2022/06/09 09:22:31;;;;;;;5.20;4.40;;;;;;;24.66;67.84;97933.81;221263;1273;22562;-74
2022/06/09 09:27:46;;;;;;;5.60;5.10;;;;;;;24.52;66.53;97937.81;222791;1271;23386;-75
2022/06/09 09:32:52;;;;;;;7.50;6.80;;;;;;;24.52;66.78;97935.23;222628;1271;22655;-75
2022/06/09 09:37:57;;;;;;;7.10;6.40;;;;;;;24.71;67.58;97936.45;222232;1273;22963;-75
2022/06/09 09:43:10;;;;;;;5.10;4.70;;;;;;;24.67;65.75;97935.70;222727;1271;25280;-73
2022/06/09 09:48:21;;;;;;;5.30;4.80;;;;;;;24.74;66.04;97937.14;222911;1271;22721;-75
2022/06/09 09:53:50;;;;;;;4.50;4.10;;;;;;;24.87;65.19;97934.91;223068;1271;22917;-76
2022/06/09 09:59:00;;;;;;;4.50;4.20;;;;;;;24.99;64.38;97934.97;223220;1271;22819;-76
2022/06/09 10:09:38;;;;;;;5.60;4.90;;;;;;;25.19;63.26;97935.55;223257;1271;22554;-76
2022/06/09 10:15:11;;;;;;;5.70;5.20;;;;;;;25.22;62.54;97943.04;223031;1272;23099;-75
2022/06/09 10:20:36;;;;;;;5.70;5.10;;;;;;;25.26;62.77;97935.10;222145;1271;24217;-73
2022/06/09 10:26:16;;;;;;;5.70;5.20;;;;;;;25.43;62.07;97921.92;222229;1271;26083;-73
2022/06/09 10:31:40;;;;;;;6.30;5.80;;;;;;;25.48;61.48;97915.06;222325;1271;22562;-74
2022/06/09 10:36:46;;;;;;;5.70;5.30;;;;;;;25.60;61.31;97913.02;222150;1270;23042;-74
2022/06/09 10:41:54;;;;;;;6.20;5.70;;;;;;;25.75;60.75;97913.48;222240;1271;26348;-74
2022/06/09 10:58:38;;;;;;;6.90;6.30;;;;;;;26.06;60.21;97915.77;221548;1273;23058;-73
2022/06/09 11:03:53;;;;;;;6.90;6.40;;;;;;;26.55;60.52;97916.23;221561;1273;22649;-73
2022/06/09 11:09:15;;;;;;;6.60;6.10;;;;;;;26.87;59.87;97915.27;221302;1271;22539;-73
2022/06/09 11:14:36;;;;;;;6.50;6.00;;;;;;;27.29;59.04;97915.77;221692;1273;22556;-73
2022/06/09 11:20:08;;;;;;;5.70;5.30;;;;;;;27.49;57.97;97915.55;221740;1271;22574;-72
2022/06/09 11:25:51;;;;;;;6.50;5.90;;;;;;;27.20;56.71;97905.48;221794;1272;22560;-73
2022/06/09 11:31:21;;;;;;;6.60;6.10;;;;;;;26.77;56.00;97909.13;222063;1273;22546;-72
2022/06/09 11:36:49;;;;;;;7.80;7.10;;;;;;;26.60;56.81;97897.87;222174;1271;22542;-73
2022/06/09 11:42:30;;;;;;;7.30;6.60;;;;;;;26.73;57.15;97891.23;222046;1271;24381;-73
2022/06/09 11:47:54;;;;;;;7.60;7.00;;;;;;;26.91;57.71;97878.77;221707;1273;24299;-73
2022/06/09 11:53:03;;;;;;;8.10;7.40;;;;;;;27.20;57.80;97882.15;221942;1271;22489;-72
2022/06/09 11:58:29;;;;;;;9.10;8.40;;;;;;;27.61;56.96;97876.73;221808;1273;22630;-73
2022/06/09 12:04:17;;;;;;;9.60;8.80;;;;;;;28.01;56.47;97872.52;221846;1272;25620;-74
2022/06/09 12:09:36;;;;;;;;;;;;;;;28.19;55.17;97886.89;222084;1271;22841;-73
2022/06/09 12:14:42;;;;;;;10.00;9.10;;;;;;;28.00;54.46;97879.77;219974;1271;2859909;-73
2022/06/09 12:20:03;;;;;;;14.70;13.50;;;;;;;27.59;54.54;97873.33;222104;1273;24211;-74
2022/06/09 12:25:33;;;;;;;10.10;9.20;;;;;;;27.18;54.93;97873.02;221172;1275;22562;-74
2022/06/09 12:30:39;;;;;;;9.50;8.70;;;;;;;26.86;55.49;97879.40;221073;1276;22552;-74
2022/06/09 12:35:52;;;;;;;9.40;8.60;;;;;;;26.58;55.88;97870.20;221471;1275;24262;-73
2022/06/09 12:41:20;;;;;;;9.40;8.60;;;;;;;26.39;56.36;97867.67;221313;1274;22587;-74
2022/06/09 12:47:25;;;;;;;11.30;10.10;;;;;;;26.24;57.12;97870.35;220622;1280;23070;-73
2022/06/09 12:52:45;;;;;;;9.70;8.90;;;;;;;26.52;57.84;97869.35;221057;1278;22589;-73
2022/06/09 12:57:52;;;;;;;9.10;8.30;;;;;;;26.92;57.36;97872.70;220920;1276;22545;-74
2022/06/09 13:03:29;;;;;;;9.60;8.80;;;;;;;26.85;56.39;97877.95;221108;1276;23808;-74
2022/06/09 13:08:45;;;;;;;9.00;8.20;;;;;;;26.65;56.44;97879.89;221068;1274;24378;-74
2022/06/09 13:13:53;;;;;;;7.60;6.90;;;;;;;26.57;56.82;97871.16;221466;1272;22522;-73
2022/06/09 13:19:02;;;;;;;8.40;7.80;;;;;;;26.67;56.01;97861.19;221554;1271;22525;-73
2022/06/09 13:24:12;;;;;;;7.70;7.10;;;;;;;26.81;55.74;97855.63;221872;1272;22455;-73
2022/06/09 13:29:29;;;;;;;7.60;7.00;;;;;;;26.83;55.41;97865.49;221436;1271;22688;-73
2022/06/09 13:34:34;;;;;;;7.90;7.20;;;;;;;26.91;55.25;97880.32;221516;1271;22657;-71
2022/06/09 13:39:49;;;;;;;8.40;7.60;;;;;;;26.98;55.64;97885.69;221429;1271;22570;-71
2022/06/09 13:45:19;;;;;;;9.30;7.10;;;;;;;26.68;55.60;97886.84;221869;1271;22566;-72
2022/06/09 13:50:21;;;;;;;8.80;8.10;;;;;;;26.28;56.10;97913.89;221063;1273;24380;-72
2022/06/09 13:55:35;;;;;;;9.30;8.50;;;;;;;25.79;56.11;97946.66;220786;1271;23302;-73
2022/06/09 14:00:59;;;;;;;9.90;9.00;;;;;;;24.79;56.23;97952.23;221720;1271;23975;-73
2022/06/09 14:06:10;;;;;;;8.40;7.70;;;;;;;23.85;58.42;97950.69;220845;1271;25373;-74
2022/06/09 14:11:22;;;;;;;9.60;8.20;;;;;;;23.17;60.33;97969.21;221046;1271;25430;-72
2022/06/09 14:16:38;;;;;;;18.40;11.10;;;;;;;22.38;62.95;98011.45;221179;1271;22544;-72
2022/06/09 14:22:21;;;;;;;13.30;10.20;;;;;;;21.45;65.93;98026.35;224784;1261;22418;31
2022/06/09 14:27:35;;;;;;;12.00;8.50;;;;;;;20.34;68.07;98046.23;217802;1284;22725;-71
2022/06/09 14:33:21;;;;;;;11.90;8.10;;;;;;;19.47;70.85;98054.00;218937;1284;24220;-74
2022/06/09 14:38:27;;;;;;;9.60;8.60;;;;;;;18.94;73.11;98050.36;218552;1284;22657;-74
2022/06/09 14:43:35;;;;;;;18.00;14.60;;;;;;;18.61;74.80;98032.16;219193;1284;24239;-73
2022/06/09 14:48:40;;;;;;;11.00;10.00;;;;;;;18.38;76.76;98035.15;219237;1284;23359;-74
2022/06/09 14:53:43;;;;;;;13.80;11.40;;;;;;;18.19;78.37;98045.84;219068;1284;22591;-75
2022/06/09 14:58:45;;;;;;;13.20;11.90;;;;;;;18.01;79.13;98044.33;219310;1283;26379;-75
2022/06/09 15:03:53;;;;;;;14.10;12.70;;;;;;;17.88;80.20;98028.80;219150;1284;25409;-74
2022/06/09 15:08:57;;;;;;;16.00;14.30;;;;;;;17.82;81.01;98020.45;219436;1284;25602;-75
2022/06/09 15:14:08;;;;;;;15.90;14.20;;;;;;;17.79;81.80;98026.82;219534;1284;24371;-73
2022/06/09 15:19:33;;;;;;;18.60;15.60;;;;;;;17.80;82.41;98034.81;219462;1284;25424;-73
2022/06/09 15:24:39;;;;;;;20.00;16.50;;;;;;;17.82;83.14;98042.65;219352;1284;24273;-71
2022/06/09 15:29:41;;;;;;;19.30;17.30;;;;;;;17.82;83.68;98047.21;218591;1285;24307;-73
2022/06/09 15:34:49;;;;;;;21.50;19.00;;;;;;;17.84;84.46;98069.63;218645;1287;22617;-73
2022/06/09 15:39:57;;;;;;;17.20;15.40;;;;;;;17.89;84.98;98070.59;219292;1284;24800;-75
2022/06/09 15:45:17;;;;;;;17.10;15.40;;;;;;;17.91;85.51;98072.15;219388;1284;22582;-74
2022/06/09 15:51:16;;;;;;;15.40;13.10;;;;;;;17.94;85.79;98077.95;219298;1284;22580;-75
2022/06/09 15:56:24;;;;;;;13.30;11.50;;;;;;;17.93;85.97;98083.27;219581;1284;22631;-74
2022/06/09 16:01:26;;;;;;;12.70;11.30;;;;;;;17.92;86.16;98080.69;219413;1284;22572;-73
2022/06/09 16:06:29;;;;;;;14.30;12.80;;;;;;;17.88;86.34;98082.74;219192;1286;23889;-72
2022/06/09 16:11:38;;;;;;;16.90;14.70;;;;;;;17.89;86.89;98080.21;219597;1284;22568;-74
2022/06/09 16:16:40;;;;;;;17.80;16.00;;;;;;;17.88;87.27;98090.23;219449;1284;22945;-73
2022/06/09 16:21:46;;;;;;;18.10;16.30;;;;;;;17.87;87.64;98097.50;219287;1284;25454;-71
2022/06/09 16:26:48;;;;;;;20.40;18.00;;;;;;;17.83;88.03;98106.39;219534;1284;22610;-70
2022/06/09 16:31:50;;;;;;;20.70;17.80;;;;;;;17.81;88.37;98104.70;218693;1284;22561;-72
2022/06/09 16:36:53;;;;;;;22.40;19.90;;;;;;;17.78;88.83;98101.86;219063;1284;22602;-72
2022/06/09 16:41:55;;;;;;;22.70;19.80;;;;;;;17.77;89.40;98112.13;219029;1284;22579;-73
2022/06/09 16:46:57;;;;;;;22.80;20.20;;;;;;;17.78;89.54;98120.98;219148;1284;24360;-72
2022/06/09 16:52:03;;;;;;;20.50;18.30;;;;;;;17.76;89.60;98133.08;218789;1284;25550;-73
2022/06/09 16:57:09;;;;;;;19.50;17.50;;;;;;;17.72;89.79;98143.89;218831;1284;22571;-73
2022/06/09 17:02:12;;;;;;;18.20;15.60;;;;;;;17.64;89.84;98156.87;219029;1284;24431;-73
2022/06/09 17:07:17;;;;;;;15.30;13.80;;;;;;;17.56;90.04;98164.49;219351;1284;25223;-72
2022/06/09 17:12:33;;;;;;;14.50;13.00;;;;;;;17.45;89.96;98170.19;219032;1284;24441;-72
2022/06/09 17:17:39;;;;;;;12.60;11.40;;;;;;;17.33;90.06;98188.00;219263;1284;24326;-73
2022/06/09 17:22:41;;;;;;;10.60;9.50;;;;;;;17.22;90.11;98189.92;218995;1284;22879;-72
2022/06/09 17:27:44;;;;;;;9.80;8.90;;;;;;;17.10;90.07;98189.60;218934;1283;23065;-73
2022/06/09 17:32:46;;;;;;;15.30;12.70;;;;;;;16.97;90.28;98189.02;219180;1284;22575;-71
2022/06/09 17:37:52;;;;;;;11.20;10.00;;;;;;;16.89;90.62;98195.99;219233;1282;22547;-71
2022/06/09 17:42:55;;;;;;;10.90;9.50;;;;;;;16.83;90.84;98200.21;219546;1285;22559;-73
2022/06/09 17:47:58;;;;;;;12.80;9.60;;;;;;;16.78;91.13;98213.66;219516;1284;25403;-74
2022/06/09 17:53:03;;;;;;;10.40;9.40;;;;;;;16.72;91.44;98223.64;219322;1282;25543;-73
2022/06/09 17:58:10;;;;;;;9.50;8.60;;;;;;;16.71;91.85;98226.33;219421;1282;22553;-72
2022/06/09 18:03:13;;;;;;;8.70;7.20;;;;;;;16.71;92.06;98227.33;218683;1284;25413;-73
2022/06/09 18:08:23;;;;;;;7.40;6.80;;;;;;;16.69;91.96;98228.34;218471;1284;22639;-72
2022/06/09 18:13:26;;;;;;;8.00;6.80;;;;;;;16.63;91.74;98222.45;218976;1282;22572;-72
2022/06/09 18:18:28;;;;;;;7.50;6.30;;;;;;;16.58;91.80;98228.63;219150;1282;22565;-73
2022/06/09 18:23:42;;;;;;;7.10;6.50;;;;;;;16.52;91.91;98233.63;219164;1282;22588;-73
2022/06/09 18:28:44;;;;;;;8.00;7.20;;;;;;;16.50;92.25;98230.95;218903;1284;22553;-73
2022/06/09 18:33:46;;;;;;;8.10;7.30;;;;;;;16.48;92.48;98241.77;218816;1282;24240;-74
2022/06/09 18:38:49;;;;;;;8.40;7.60;;;;;;;16.46;92.70;98259.16;219279;1282;22598;-73
2022/06/09 18:43:51;;;;;;;7.30;6.60;;;;;;;16.42;92.87;98269.73;219186;1282;22716;-73
2022/06/09 18:48:53;;;;;;;8.90;6.70;;;;;;;16.38;92.88;98272.70;219173;1282;23820;-72
2022/06/09 18:54:03;;;;;;;8.50;7.70;;;;;;;16.36;93.29;98279.36;219325;1282;22578;-73
2022/06/09 18:59:05;;;;;;;7.80;7.00;;;;;;;16.35;93.34;98281.84;218994;1282;23092;-73
2022/06/09 19:04:08;;;;;;;7.60;6.90;;;;;;;16.31;93.44;98280.44;219213;1282;25359;-72
2022/06/09 19:09:10;;;;;;;7.70;7.00;;;;;;;16.29;93.56;98286.67;218639;1284;23271;-73
2022/06/09 19:14:29;;;;;;;8.30;7.50;;;;;;;16.25;93.85;98289.83;219147;1282;22669;-72
2022/06/09 19:19:34;;;;;;;8.40;7.20;;;;;;;16.23;94.08;98292.84;219446;1282;25310;-75
2022/06/09 19:24:46;;;;;;;8.50;7.20;;;;;;;16.22;94.39;98299.27;218737;1284;25472;-72
2022/06/09 19:29:54;;;;;;;9.50;8.50;;;;;;;16.21;94.64;98305.04;219180;1284;22724;-74
2022/06/09 19:34:59;;;;;;;13.30;11.60;;;;;;;16.20;94.88;98305.26;219270;1284;22576;-74
2022/06/09 19:40:03;;;;;;;10.10;9.10;;;;;;;16.18;95.01;98302.70;218914;1284;22639;-74
2022/06/09 19:45:06;;;;;;;8.90;8.00;;;;;;;16.14;95.20;98309.55;218887;1284;22600;-74
2022/06/09 19:50:19;;;;;;;9.00;8.00;;;;;;;16.08;95.20;98305.02;218861;1284;24290;-73
2022/06/09 19:55:22;;;;;;;9.70;8.80;;;;;;;16.07;95.56;98307.53;218850;1284;22644;-74
2022/06/09 20:00:28;;;;;;;9.90;9.00;;;;;;;16.05;95.76;98311.86;218943;1284;22587;-73
2022/06/09 20:05:31;;;;;;;11.70;10.50;;;;;;;16.04;96.18;98311.52;218996;1284;24164;-74
2022/06/09 20:10:47;;;;;;;13.00;11.10;;;;;;;16.04;96.63;98319.33;219013;1284;22582;-74
2022/06/09 20:15:50;;;;;;;15.30;13.70;;;;;;;16.05;97.06;98333.71;218797;1282;22958;-73
2022/06/09 20:21:01;;;;;;;23.80;21.20;;;;;;;16.05;97.22;98347.09;219226;1282;25416;-75
2022/06/09 20:26:07;;;;;;;19.40;17.40;;;;;;;16.06;97.34;98337.67;218847;1282;22589;-74
2022/06/09 20:31:28;;;;;;;15.10;13.10;;;;;;;16.05;97.40;98332.11;218948;1284;22797;-75
2022/06/09 20:36:33;;;;;;;13.60;12.20;;;;;;;16.05;97.58;98328.17;219289;1284;24332;-74
2022/06/09 20:41:36;;;;;;;13.30;12.00;;;;;;;16.04;97.35;98322.89;218724;1284;22616;-74
2022/06/09 20:46:41;;;;;;;14.40;12.90;;;;;;;16.03;97.34;98325.44;219000;1282;25385;-74
2022/06/09 20:51:44;;;;;;;12.50;11.20;;;;;;;16.02;97.70;98331.52;218972;1282;25426;-74
2022/06/09 20:56:47;;;;;;;12.30;11.10;;;;;;;16.02;97.75;98335.14;218985;1282;22582;-74
2022/06/09 21:01:50;;;;;;;13.30;11.90;;;;;;;16.00;97.66;98337.71;219476;1282;24701;-75
2022/06/09 21:06:53;;;;;;;12.60;11.10;;;;;;;15.98;97.91;98349.23;219353;1282;22550;-74
2022/06/09 21:22:56;;;;;;;13.30;10.60;;;;;;;15.90;98.20;98381.08;219229;1282;22731;-75
2022/06/09 21:28:02;;;;;;;11.20;10.00;;;;;;;15.87;98.23;98383.83;218975;1284;22559;-73
2022/06/09 21:33:19;;;;;;;10.40;9.20;;;;;;;15.84;98.25;98387.13;219190;1282;25462;-75
2022/06/09 21:38:47;;;;;;;11.30;9.20;;;;;;;15.80;98.14;98389.73;219156;1282;22547;-75
2022/06/09 21:44:20;;;;;;;10.50;8.80;;;;;;;15.77;98.31;98398.48;219189;1282;22548;-74
2022/06/09 21:49:57;;;;;;;11.30;8.90;;;;;;;15.76;98.40;98408.39;218931;1279;22580;-73
2022/06/09 21:55:34;;;;;;;10.90;9.60;;;;;;;15.73;98.43;98416.39;219135;1282;22572;-74
2022/06/09 22:00:46;;;;;;;10.40;9.10;;;;;;;15.70;98.58;98419.22;219167;1282;24696;-75
2022/06/09 22:05:52;;;;;;;12.70;10.80;;;;;;;15.68;98.62;98426.15;218932;1282;22590;-75
2022/06/09 22:11:13;;;;;;;9.80;8.80;;;;;;;15.65;98.75;98436.55;219210;1282;22606;-75
2022/06/09 22:16:42;;;;;;;9.90;8.90;;;;;;;15.63;98.80;98452.75;219014;1282;22550;-76
2022/06/09 22:22:11;;;;;;;10.40;9.40;;;;;;;15.60;98.86;98462.68;218988;1282;24396;-75
2022/06/09 22:27:34;;;;;;;10.60;9.10;;;;;;;15.58;98.95;98468.31;219034;1284;24404;-74
2022/06/09 22:32:52;;;;;;;10.40;9.20;;;;;;;15.59;99.22;98476.89;218776;1284;22735;-74
2022/06/09 22:38:19;;;;;;;12.80;10.10;;;;;;;15.58;99.23;98476.04;219165;1282;22581;-74
2022/06/09 22:43:40;;;;;;;;;;;;;;;;;;;;;
2022/06/09 22:48:58;;;;;;;12.10;10.00;;;;;;;15.57;99.42;98479.69;219105;1282;22554;-74
2022/06/09 22:54:09;;;;;;;11.80;10.50;;;;;;;15.56;99.51;98485.90;219345;1284;25491;-75
2022/06/09 22:59:19;;;;;;;10.90;9.80;;;;;;;15.56;99.60;98493.08;219457;1282;22568;-74
2022/06/09 23:04:24;;;;;;;10.60;9.40;;;;;;;15.56;99.79;98498.31;219415;1282;25272;-73
2022/06/09 23:09:54;;;;;;;12.50;10.50;;;;;;;15.55;99.58;98504.67;219225;1283;24404;-75
2022/06/09 23:15:12;;;;;;;14.50;10.20;;;;;;;15.52;99.89;98510.38;219262;1282;22544;-73
2022/06/09 23:20:22;;;;;;;13.20;10.60;;;;;;;15.52;100.00;98509.96;219115;1282;26474;-73
2022/06/09 23:25:30;;;;;;;12.20;10.70;;;;;;;15.52;100.00;98510.66;218980;1284;25656;-74
2022/06/09 23:31:05;;;;;;;13.00;10.70;;;;;;;15.53;100.00;98511.27;219025;1284;25391;-73
2022/06/09 23:36:34;;;;;;;;;;;;;;;;;;;;;
2022/06/09 23:41:42;;;;;;;13.80;10.40;;;;;;;15.52;100.00;98514.77;218655;1284;24234;-74
2022/06/09 23:47:11;;;;;;;12.30;10.90;;;;;;;15.49;100.00;98512.40;218864;1284;26520;-73
2022/06/09 23:52:21;;;;;;;13.40;11.80;;;;;;;15.48;100.00;98516.69;219117;1284;22605;-73
2022/06/09 23:57:37;;;;;;;16.20;13.90;;;;;;;15.48;100.00;98520.38;218809;1284;22732;-73
